Walkerburn, United Kingdom
Current Conditions -  °F | °C
As of 8:20 AM on Friday 21 Nov 2014 (Local Time) from EGPH Reporting Station
Light Fog Light Fog  
Wind Chill: 34°   Ceiling: Unl
Heat Index: 34°   Visibility: 2.7mi
Dew Point: 34°   Wind: 3mph
Humidity: 100%   Direction: NA
Pressure: 30.15"   Gusts: NA
Location:  55.62°N, 3.01°W
Report Text: EGPH 210820Z VRB03KT 4400 BR MIFG FEW018 01/01 Q1021
Loading
Personal Weather Stations






























Interactive Weather Map New forecast layout! Learn more

10-Day Weather Forecast

Advertisements
Track Severe Weather on mobile